Naples, Italy

5:09 AM CET on November 28, 2014 (GMT +0100)
Naples | Change Station
CLOSE
Current Station
Personal Weather Station
Location: Naples, Campania
Elevation: 108 ft
Nearby Weather Stations

Elev 108 ft 40.84 °N, 14.25 °E | Updated 8 minutes ago

Clear
Clear
58.3 °F
Feels Like 58.3 °F
N
5.0
Wind Variable Wind from ENE
Gusts 6.0 mph

Today
High -- | Low -- °F
--% Chance of Precip.
Yesterday
High -- | Low -- °F
Precip. -- in
7:04 AM 4:36 PM
Waxing Crescent, 36% visible
Pressure 29.89 in
Visibility 4.3 miles
Clouds
Dew Point 49 °F
Humidity 71%
Rainfall 0.00 in
Snow Depth Not available.
UV Not available.
Pollen Not available.
Air Quality Not available.
Flu Activity Not available.
METAR LIRM 280355Z 04006KT 7000 NSC 11/10 Q1012

More Conditions Fewer Conditions

Pressure 29.89 in
Visibility 4.3 miles
Clouds
Dew Point 49 °F
Humidity 71%
Rainfall 0.00 in
Snow Depth Not available.
UV Not available.
Pollen Not available.
Air Quality Not available.
Flu Activity Not available.
METAR LIRM 280355Z 04006KT 7000 NSC 11/10 Q1012

More Conditions Fewer Conditions

10-Day Weather Forecast

Almanac

Astronomy

Nov. 28, 2014 Rise Set
Actual Time
Civil Twilight
Nautical Twilight
Astronomical Twilight
Moon
Length of Visible Light
Length of Day
Tomorrow will be .
, % of the Moon is Illuminated

Today's Extremes

Country Highs Country Lows

Community

WunderPhotos

Upload Photos

1,774,176 photos uploaded!

WunderBlogs® & News

Nearby

Air Quality

  Air Quality AQ Index Pollutant
Not available.

Snow Depth

Station Depth Elevation

Earthquake Activity

City Distance Mag. Time & Date
Minimum magnitude displayed is 2.5.

Coastal Water Temperatures

Place Temperature

Nearby Weather Stations